Time;durP1;ratioP1;P1;durP2;ratioP2;P2;SDS_P1;SDS_P2;PMS_P1;PMS_P2;Temp;Humidity;BMP_temperature;BMP_pressure;BME280_temperature;BME280_humidity;BME280_pressure;Samples;Min_cycle;Max_cycle;Signal;HPM_P1;HPM_P2
2021/01/06 00:00:54;;;;;;;3.93;2.00;;;2.70;99.90;;;;;;5018693;28;20226;-44
2021/01/06 00:03:23;;;;;;;3.13;1.70;;;2.70;99.90;;;;;;5022667;28;20633;-46
2021/01/06 00:05:58;;;;;;;4.00;2.20;;;2.70;99.90;;;;;;5019371;28;20211;-51
2021/01/06 00:08:25;;;;;;;2.73;1.77;;;2.60;99.90;;;;;;5024875;28;20172;-44
2021/01/06 00:10:52;;;;;;;2.57;1.70;;;2.60;99.90;;;;;;5022173;28;20218;-52
2021/01/06 00:13:17;;;;;;;3.70;2.20;;;2.70;99.90;;;;;;5014994;28;20184;-48
2021/01/06 00:15:44;;;;;;;4.67;2.00;;;2.60;99.90;;;;;;5023754;28;20203;-51
2021/01/06 00:18:10;;;;;;;4.40;2.27;;;2.60;99.90;;;;;;5024604;28;20176;-47
2021/01/06 00:20:36;;;;;;;4.20;2.10;;;2.60;99.90;;;;;;5024840;28;20223;-51
2021/01/06 00:23:01;;;;;;;3.10;1.87;;;2.60;99.90;;;;;;5023001;28;20184;-44
2021/01/06 00:25:30;;;;;;;5.57;1.73;;;2.60;99.90;;;;;;5026058;28;20194;-44
2021/01/06 00:27:56;;;;;;;2.23;1.70;;;2.60;99.90;;;;;;5022062;28;20183;-45
2021/01/06 00:30:27;;;;;;;2.43;2.07;;;2.60;99.90;;;;;;5014776;28;20202;-44
2021/01/06 00:32:53;;;;;;;2.60;1.50;;;2.60;99.90;;;;;;5012028;28;20207;-49
2021/01/06 00:35:20;;;;;;;2.93;2.10;;;2.60;99.90;;;;;;5025811;28;20538;-47
2021/01/06 00:37:46;;;;;;;2.60;1.67;;;2.60;99.90;;;;;;5023089;28;20686;-52
2021/01/06 00:40:12;;;;;;;2.13;1.90;;;2.60;99.90;;;;;;5024689;28;20183;-46
2021/01/06 00:42:38;;;;;;;2.07;1.87;;;2.50;99.90;;;;;;5024539;28;20179;-50
2021/01/06 00:45:09;;;;;;;3.37;2.33;;;2.60;99.90;;;;;;5011920;28;20199;-44
2021/01/06 00:47:35;;;;;;;5.10;1.83;;;2.60;99.90;;;;;;5024389;28;20184;-53
2021/01/06 00:50:01;;;;;;;3.27;1.93;;;2.60;99.90;;;;;;5022366;28;20582;-46
2021/01/06 00:52:26;;;;;;;2.20;2.00;;;2.60;99.90;;;;;;5025640;28;20208;-44
2021/01/06 00:54:52;;;;;;;2.20;2.00;;;2.50;99.90;;;;;;5021530;28;20213;-45
2021/01/06 00:57:17;;;;;;;4.00;1.80;;;2.50;99.90;;;;;;5025605;28;20195;-44
2021/01/06 00:59:45;;;;;;;2.10;1.90;;;2.50;99.90;;;;;;5011722;28;20184;-53
2021/01/06 01:02:11;;;;;;;1.97;1.50;;;2.50;99.90;;;;;;5023482;28;20207;-48
2021/01/06 01:04:36;;;;;;;5.03;2.00;;;2.50;99.90;;;;;;5024251;28;20191;-49
2021/01/06 01:07:01;;;;;;;2.73;1.50;;;2.50;99.90;;;;;;5022490;28;20182;-44
2021/01/06 01:09:27;;;;;;;2.07;1.33;;;2.50;99.90;;;;;;5025103;28;20185;-46
2021/01/06 01:11:52;;;;;;;1.90;1.57;;;2.50;99.90;;;;;;5021046;28;20211;-44
2021/01/06 01:14:18;;;;;;;2.33;1.83;;;2.50;99.90;;;;;;5013901;28;20191;-46
2021/01/06 01:16:44;;;;;;;1.77;1.50;;;2.50;99.90;;;;;;5022196;28;20186;-53
2021/01/06 01:19:10;;;;;;;5.30;1.63;;;2.50;99.90;;;;;;5022893;28;20254;-47
2021/01/06 01:21:37;;;;;;;3.10;1.67;;;2.50;99.90;;;;;;5023821;28;20203;-51
2021/01/06 01:24:04;;;;;;;1.80;1.50;;;2.50;99.90;;;;;;5021930;28;20203;-44
2021/01/06 01:26:29;;;;;;;1.30;1.20;;;2.40;99.90;;;;;;5025207;28;20179;-47
2021/01/06 01:28:55;;;;;;;2.43;1.97;;;2.50;99.90;;;;;;5019820;28;20341;-45
2021/01/06 01:31:20;;;;;;;1.87;1.67;;;2.40;99.90;;;;;;5008281;28;20200;-44
2021/01/06 01:33:46;;;;;;;4.63;1.57;;;2.50;99.90;;;;;;5021599;28;20717;-51
2021/01/06 01:36:11;;;;;;;2.33;1.80;;;2.40;99.90;;;;;;5022999;28;20651;-45
2021/01/06 01:38:37;;;;;;;6.20;1.93;;;2.40;99.90;;;;;;5023148;28;20526;-53
2021/01/06 01:41:09;;;;;;;2.93;1.70;;;2.40;99.90;;;;;;5021845;28;20207;-45
2021/01/06 01:43:36;;;;;;;3.20;1.67;;;2.40;99.90;;;;;;5023828;28;20241;-53
2021/01/06 01:46:01;;;;;;;2.93;1.87;;;2.40;99.90;;;;;;5010997;28;20215;-45
2021/01/06 01:48:37;;;;;;;2.93;1.90;;;2.40;99.90;;;;;;5024422;28;20191;-44
2021/01/06 01:51:15;;;;;;;2.87;1.90;;;2.40;99.90;;;;;;5002032;28;20211;-44
2021/01/06 01:53:53;;;;;;;2.93;2.00;;;2.40;99.90;;;;;;5002820;28;20172;-51
2021/01/06 01:56:24;;;;;;;3.13;1.67;;;2.40;99.90;;;;;;5004849;28;20184;-45
2021/01/06 01:58:54;;;;;;;4.60;1.80;;;2.50;99.90;;;;;;5000908;28;20227;-52
2021/01/06 02:01:20;;;;;;;4.50;2.47;;;2.40;99.90;;;;;;5004659;28;20599;-44
2021/01/06 02:03:54;;;;;;;4.17;1.97;;;2.50;99.90;;;;;;5008505;28;20652;-53
2021/01/06 02:06:30;;;;;;;2.27;1.90;;;2.40;99.90;;;;;;5024343;28;20195;-44
2021/01/06 02:09:26;;;;;;;2.73;1.93;;;2.50;99.90;;;;;;5011665;28;20179;-44
2021/01/06 02:12:15;;;;;;;2.63;1.73;;;2.50;99.90;;;;;;5018925;28;21113;-46
2021/01/06 02:14:52;;;;;;;2.23;1.80;;;2.40;99.90;;;;;;5022303;28;20259;-51
2021/01/06 02:17:18;;;;;;;2.30;1.80;;;2.50;99.90;;;;;;5012715;28;20192;-44
2021/01/06 02:19:45;;;;;;;2.10;1.90;;;2.50;99.90;;;;;;5021223;28;20236;-51
2021/01/06 02:22:15;;;;;;;2.33;2.13;;;2.50;99.90;;;;;;5022779;28;20552;-44
2021/01/06 02:24:40;;;;;;;4.63;2.13;;;2.50;99.90;;;;;;5022187;28;20291;-52
2021/01/06 02:27:06;;;;;;;6.23;2.00;;;2.50;99.90;;;;;;5020756;28;20972;-44
2021/01/06 02:29:35;;;;;;;2.90;1.80;;;2.50;99.90;;;;;;5023204;28;20186;-51
2021/01/06 02:32:01;;;;;;;3.53;2.00;;;2.50;99.90;;;;;;5018377;28;20209;-44
2021/01/06 02:34:27;;;;;;;2.27;1.87;;;2.50;99.90;;;;;;5012475;28;20228;-44
2021/01/06 02:36:53;;;;;;;2.50;2.00;;;2.50;99.90;;;;;;5019525;28;20834;-48
2021/01/06 02:39:19;;;;;;;3.17;1.97;;;2.50;99.90;;;;;;5023742;28;20187;-44
2021/01/06 02:41:47;;;;;;;2.47;2.27;;;2.50;99.90;;;;;;5020941;28;20204;-50
2021/01/06 02:44:15;;;;;;;3.60;2.23;;;2.50;99.90;;;;;;5021288;28;20192;-46
2021/01/06 02:46:41;;;;;;;2.70;1.80;;;2.50;99.90;;;;;;5021719;28;20188;-52
2021/01/06 02:49:08;;;;;;;3.07;2.27;;;2.50;99.90;;;;;;5010415;28;20362;-44
2021/01/06 02:51:54;;;;;;;2.70;2.50;;;2.40;99.90;;;;;;5022796;28;20295;-52
2021/01/06 02:54:27;;;;;;;4.23;2.23;;;2.50;99.90;;;;;;5023718;28;20226;-45
2021/01/06 02:56:57;;;;;;;4.03;2.40;;;2.50;99.90;;;;;;5019430;28;20184;-48
2021/01/06 02:59:27;;;;;;;2.83;2.30;;;2.50;99.90;;;;;;5021953;28;20183;-44
2021/01/06 03:01:54;;;;;;;3.57;2.63;;;2.50;99.90;;;;;;5019099;28;20192;-44
2021/01/06 03:04:22;;;;;;;5.87;2.10;;;2.50;99.90;;;;;;5012409;28;20201;-46
2021/01/06 03:06:53;;;;;;;4.23;2.37;;;2.50;99.90;;;;;;5019762;28;20187;-53
2021/01/06 03:09:40;;;;;;;2.67;2.10;;;2.50;99.90;;;;;;5021921;28;20184;-47
2021/01/06 03:12:12;;;;;;;3.07;2.10;;;2.50;99.90;;;;;;5014735;28;20212;-45
2021/01/06 03:14:40;;;;;;;2.80;2.53;;;2.50;99.90;;;;;;5021996;28;20234;-51
2021/01/06 03:17:07;;;;;;;4.80;2.50;;;2.50;99.90;;;;;;5021208;28;20933;-45
2021/01/06 03:19:36;;;;;;;4.80;2.33;;;2.40;99.90;;;;;;5006563;28;20189;-50
2021/01/06 03:22:04;;;;;;;4.10;2.10;;;2.50;99.90;;;;;;5020087;28;20577;-48
2021/01/06 03:24:34;;;;;;;2.43;2.20;;;2.40;99.90;;;;;;5022935;28;20176;-46
2021/01/06 03:27:00;;;;;;;5.67;2.50;;;2.50;99.90;;;;;;5019874;28;20180;-48
2021/01/06 03:29:30;;;;;;;4.13;2.07;;;2.40;99.90;;;;;;5023257;28;20184;-44
2021/01/06 03:31:59;;;;;;;3.87;2.47;;;2.40;99.90;;;;;;5019139;28;20204;-45
2021/01/06 03:34:29;;;;;;;3.03;2.10;;;2.40;99.90;;;;;;5011908;28;20254;-44
2021/01/06 03:37:06;;;;;;;3.27;2.53;;;2.40;99.90;;;;;;5011219;28;20165;-44
2021/01/06 03:39:38;;;;;;;3.10;2.43;;;2.40;99.90;;;;;;5022336;28;20549;-52
2021/01/06 03:42:04;;;;;;;5.17;2.33;;;2.40;99.90;;;;;;5020902;28;20910;-49
2021/01/06 03:44:31;;;;;;;4.23;3.10;;;2.40;99.90;;;;;;5027014;28;20231;-44
2021/01/06 03:47:11;;;;;;;4.67;2.47;;;2.40;99.90;;;;;;5022877;28;20934;-44
2021/01/06 03:49:58;;;;;;;3.83;2.60;;;2.40;99.90;;;;;;5022115;28;20184;-53
2021/01/06 03:52:48;;;;;;;4.07;1.97;;;2.40;99.90;;;;;;5022371;28;20210;-48
2021/01/06 03:55:26;;;;;;;4.03;2.77;;;2.40;99.90;;;;;;5006141;28;20664;-45
2021/01/06 03:57:54;;;;;;;5.23;2.30;;;2.40;99.90;;;;;;5003117;28;20327;-48
2021/01/06 04:00:39;;;;;;;4.17;2.53;;;2.40;99.90;;;;;;5006798;28;20173;-44
2021/01/06 04:03:24;;;;;;;3.17;2.83;;;2.40;99.90;;;;;;5004541;28;20177;-44
2021/01/06 04:05:49;;;;;;;6.43;2.67;;;2.40;99.90;;;;;;4995840;28;20638;-53
2021/01/06 04:08:24;;;;;;;4.43;2.60;;;2.40;99.90;;;;;;5025437;28;20191;-44
2021/01/06 04:10:54;;;;;;;3.13;2.63;;;2.40;99.90;;;;;;5021924;28;20192;-51
2021/01/06 04:13:20;;;;;;;3.27;2.53;;;2.40;99.90;;;;;;5026423;28;20179;-43
2021/01/06 04:15:45;;;;;;;2.83;2.07;;;2.40;99.90;;;;;;5023545;28;20168;-52
2021/01/06 04:18:11;;;;;;;3.47;2.33;;;2.40;99.90;;;;;;5025133;28;20172;-44
2021/01/06 04:20:38;;;;;;;3.40;2.47;;;2.30;99.90;;;;;;5025178;28;20191;-49
2021/01/06 04:23:06;;;;;;;4.87;2.57;;;2.40;99.90;;;;;;5012501;28;20278;-43
2021/01/06 04:25:41;;;;;;;4.13;2.83;;;2.40;99.90;;;;;;5025496;28;20208;-49
2021/01/06 04:28:08;;;;;;;2.80;2.50;;;2.40;99.90;;;;;;5024204;28;20167;-44
2021/01/06 04:30:49;;;;;;;2.67;2.43;;;2.30;99.90;;;;;;5025367;28;20184;-51
2021/01/06 04:33:23;;;;;;;3.93;2.27;;;2.30;99.90;;;;;;5025449;28;20180;-48
2021/01/06 04:35:49;;;;;;;5.77;2.50;;;2.30;99.90;;;;;;5022460;28;20203;-51
2021/01/06 04:38:18;;;;;;;3.23;2.43;;;2.30;99.90;;;;;;5014756;28;20819;-45
2021/01/06 04:40:47;;;;;;;5.10;2.47;;;2.30;99.90;;;;;;5023070;28;20198;-50
2021/01/06 04:43:42;;;;;;;3.13;2.80;;;2.30;99.90;;;;;;5025171;28;20176;-43
2021/01/06 04:46:38;;;;;;;5.60;2.87;;;2.30;99.90;;;;;;5024022;28;20184;-48
2021/01/06 04:49:33;;;;;;;4.77;2.47;;;2.30;99.90;;;;;;5022932;28;20163;-45
2021/01/06 04:52:47;;;;;;;4.23;2.43;;;2.30;99.90;;;;;;5022198;28;20869;-48
2021/01/06 04:55:39;;;;;;;5.03;2.77;;;2.30;99.90;;;;;;4980455;28;20240;-43
2021/01/06 04:58:16;;;;;;;3.23;2.50;;;2.30;99.90;;;;;;5003675;28;20157;-44
2021/01/06 05:01:03;;;;;;;4.00;2.40;;;2.30;99.90;;;;;;5003361;28;20196;-52
2021/01/06 05:03:44;;;;;;;2.50;2.30;;;2.30;99.90;;;;;;5005700;28;20846;-46
2021/01/06 05:06:21;;;;;;;4.53;2.97;;;2.30;99.90;;;;;;5004621;28;20180;-43
2021/01/06 05:08:52;;;;;;;4.77;2.77;;;2.30;99.90;;;;;;5010786;28;20190;-50
2021/01/06 05:11:31;;;;;;;2.80;2.50;;;2.30;99.90;;;;;;5020110;28;20700;-43
2021/01/06 05:14:10;;;;;;;3.40;2.50;;;2.30;99.90;;;;;;5001722;28;20238;-45
2021/01/06 05:16:42;;;;;;;4.87;2.80;;;2.30;99.90;;;;;;5004693;28;20175;-47
2021/01/06 05:19:18;;;;;;;5.60;2.60;;;2.30;99.90;;;;;;5003409;28;20240;-44
2021/01/06 05:21:44;;;;;;;4.03;2.43;;;2.30;99.90;;;;;;5002757;28;20744;-50
2021/01/06 05:24:30;;;;;;;2.83;2.47;;;2.30;99.90;;;;;;4998049;28;20216;-43
2021/01/06 05:27:20;;;;;;;2.83;2.27;;;2.30;99.90;;;;;;5012546;28;20176;-44
2021/01/06 05:29:55;;;;;;;2.33;2.13;;;2.30;99.90;;;;;;5021935;28;20175;-50
2021/01/06 05:32:27;;;;;;;2.80;2.40;;;2.30;99.90;;;;;;5024438;28;20717;-43
2021/01/06 05:34:58;;;;;;;2.90;2.10;;;2.30;99.90;;;;;;5020675;28;20253;-46
2021/01/06 05:37:24;;;;;;;3.80;2.60;;;2.30;99.90;;;;;;5024918;28;20192;-44
2021/01/06 05:39:53;;;;;;;4.20;2.60;;;2.30;99.90;;;;;;5009576;28;20549;-51
2021/01/06 05:42:25;;;;;;;3.13;2.83;;;2.30;99.90;;;;;;5024505;28;20218;-44
2021/01/06 05:44:54;;;;;;;4.03;2.47;;;2.30;99.90;;;;;;5020640;28;20195;-53
2021/01/06 05:47:36;;;;;;;3.33;3.00;;;2.30;99.90;;;;;;5024410;28;20211;-44
2021/01/06 05:50:24;;;;;;;4.30;2.80;;;2.30;99.90;;;;;;5021495;28;20183;-44
2021/01/06 05:53:00;;;;;;;3.27;2.80;;;2.30;99.90;;;;;;5020986;28;20206;-50
2021/01/06 05:55:30;;;;;;;2.80;2.50;;;2.30;99.90;;;;;;5013119;28;20196;-44
2021/01/06 05:58:09;;;;;;;3.20;2.50;;;2.30;99.90;;;;;;5012110;28;20276;-49
2021/01/06 06:01:09;;;;;;;4.63;2.90;;;2.30;99.90;;;;;;5023609;28;20192;-50
2021/01/06 06:04:01;;;;;;;6.20;2.80;;;2.30;99.90;;;;;;5023620;28;20172;-52
2021/01/06 06:06:49;;;;;;;5.53;3.00;;;2.30;99.90;;;;;;5024186;28;20539;-48
2021/01/06 06:09:27;;;;;;;4.90;2.90;;;2.30;99.90;;;;;;5018245;28;20661;-45
2021/01/06 06:12:19;;;;;;;4.07;2.87;;;2.30;99.90;;;;;;5008062;28;20937;-47
2021/01/06 06:15:06;;;;;;;6.40;2.67;;;2.30;99.90;;;;;;5021201;28;20534;-53
2021/01/06 06:17:53;;;;;;;3.10;2.60;;;2.30;99.90;;;;;;5023830;28;20247;-51
2021/01/06 06:20:34;;;;;;;10.63;2.90;;;2.30;99.90;;;;;;5023928;28;20177;-44
2021/01/06 06:23:34;;;;;;;11.00;3.30;;;2.20;99.90;;;;;;5020645;28;20168;-45
2021/01/06 06:26:22;;;;;;;5.63;3.13;;;2.20;99.90;;;;;;5010076;28;20447;-44
2021/01/06 06:29:16;;;;;;;4.47;2.87;;;2.20;99.90;;;;;;5020186;28;20182;-53
2021/01/06 06:31:52;;;;;;;5.67;3.50;;;2.10;99.90;;;;;;5016142;28;20227;-52
2021/01/06 06:34:36;;;;;;;5.47;3.43;;;2.10;99.90;;;;;;5023982;28;20792;-45
2021/01/06 06:37:14;;;;;;;3.37;3.07;;;2.00;99.90;;;;;;5020899;28;20188;-47
2021/01/06 06:40:04;;;;;;;4.57;3.30;;;2.00;99.90;;;;;;5021300;28;20223;-51
2021/01/06 06:42:33;;;;;;;6.57;4.17;;;2.00;99.90;;;;;;5012442;28;20291;-46
2021/01/06 06:45:32;;;;;;;5.93;3.20;;;2.00;99.90;;;;;;5019858;28;20222;-44
2021/01/06 06:48:28;;;;;;;6.30;3.00;;;1.90;99.90;;;;;;5019502;28;20181;-44
2021/01/06 06:51:20;;;;;;;4.10;3.10;;;1.90;99.90;;;;;;5011873;28;20975;-44
2021/01/06 06:54:09;;;;;;;5.07;3.20;;;1.90;99.90;;;;;;5020712;28;20241;-50
2021/01/06 06:56:52;;;;;;;7.07;3.20;;;1.80;99.90;;;;;;5022771;28;20210;-50
2021/01/06 06:59:54;;;;;;;4.43;3.00;;;1.80;99.90;;;;;;5012254;28;20205;-50
2021/01/06 07:02:20;;;;;;;4.87;2.87;;;1.80;99.90;;;;;;4987316;28;20214;-44
2021/01/06 07:04:59;;;;;;;4.83;3.63;;;1.70;99.90;;;;;;5000610;28;20176;-51
2021/01/06 07:07:41;;;;;;;4.67;3.37;;;1.70;99.90;;;;;;5009483;28;20253;-46
2021/01/06 07:10:20;;;;;;;5.27;3.23;;;1.70;99.90;;;;;;5014606;28;20801;-50
2021/01/06 07:12:48;;;;;;;5.63;3.97;;;1.70;99.90;;;;;;5020606;28;20214;-51
2021/01/06 07:15:24;;;;;;;4.57;3.33;;;1.70;99.90;;;;;;5011597;28;20233;-47
2021/01/06 07:17:50;;;;;;;3.40;3.10;;;1.70;99.90;;;;;;5020887;28;20179;-52
2021/01/06 07:20:32;;;;;;;6.10;3.83;;;1.60;99.90;;;;;;5026691;28;20183;-45
2021/01/06 07:23:03;;;;;;;5.03;2.77;;;1.70;99.90;;;;;;5023383;28;20173;-47
2021/01/06 07:25:32;;;;;;;6.33;3.40;;;1.60;99.90;;;;;;5026761;28;20249;-45
2021/01/06 07:28:01;;;;;;;4.37;3.13;;;1.60;99.90;;;;;;5023521;28;20179;-48
2021/01/06 07:30:50;;;;;;;6.77;3.53;;;1.60;99.90;;;;;;5015504;28;20287;-47
2021/01/06 07:33:43;;;;;;;5.80;3.87;;;1.60;99.90;;;;;;5021512;28;20207;-46
2021/01/06 07:36:18;;;;;;;5.83;4.07;;;1.60;99.90;;;;;;5025721;28;20931;-44
2021/01/06 07:38:46;;;;;;;4.80;3.27;;;1.60;99.90;;;;;;5016821;28;20195;-46
2021/01/06 07:41:12;;;;;;;7.77;4.00;;;1.50;99.90;;;;;;5020695;28;20668;-44
2021/01/06 07:43:44;;;;;;;6.93;3.63;;;1.50;99.90;;;;;;5015382;28;20186;-47
2021/01/06 07:46:19;;;;;;;6.87;3.73;;;1.50;99.90;;;;;;5015177;28;20226;-46
2021/01/06 07:48:59;;;;;;;4.80;3.50;;;1.50;99.90;;;;;;5019078;28;20191;-44
2021/01/06 07:51:47;;;;;;;5.23;4.10;;;1.50;99.90;;;;;;5024087;28;20295;-51
2021/01/06 07:54:35;;;;;;;6.00;3.90;;;1.50;99.90;;;;;;5026687;28;20168;-44
2021/01/06 07:57:28;;;;;;;8.00;4.63;;;1.50;99.90;;;;;;5026286;28;20172;-45
2021/01/06 07:59:57;;;;;;;6.23;4.13;;;1.50;99.90;;;;;;5012085;28;22245;-45
2021/01/06 08:02:41;;;;;;;4.90;3.70;;;1.50;99.90;;;;;;5024498;28;20628;-52
2021/01/06 08:05:24;;;;;;;4.97;3.43;;;1.50;99.90;;;;;;5017347;28;20195;-48
2021/01/06 08:08:03;;;;;;;4.00;3.27;;;1.50;99.90;;;;;;5024809;28;20206;-45
2021/01/06 08:10:30;;;;;;;5.63;3.50;;;1.40;99.90;;;;;;5022494;28;20548;-50
2021/01/06 08:13:20;;;;;;;9.20;4.70;;;1.50;99.90;;;;;;5026006;28;20198;-46
2021/01/06 08:15:50;;;;;;;6.93;4.23;;;1.40;99.90;;;;;;5008639;28;20270;-52
2021/01/06 08:18:26;;;;;;;5.70;3.90;;;1.40;99.90;;;;;;5025486;28;20167;-51
2021/01/06 08:21:24;;;;;;;4.40;4.00;;;1.40;99.90;;;;;;5020074;28;20207;-45
2021/01/06 08:24:09;;;;;;;6.10;3.83;;;1.40;99.90;;;;;;5024567;28;20175;-44
2021/01/06 08:26:38;;;;;;;7.23;4.00;;;1.40;99.90;;;;;;5022114;28;20306;-45
2021/01/06 08:29:14;;;;;;;6.07;4.47;;;1.40;99.90;;;;;;5022034;28;20188;-49
2021/01/06 08:31:40;;;;;;;8.47;4.00;;;1.40;99.90;;;;;;5010836;28;20208;-46
2021/01/06 08:34:06;;;;;;;5.40;4.13;;;1.40;99.90;;;;;;5025667;28;20172;-44
2021/01/06 08:36:39;;;;;;;6.03;4.33;;;1.40;99.90;;;;;;5017427;28;20527;-51
2021/01/06 08:39:19;;;;;;;5.13;3.97;;;1.30;99.90;;;;;;5025640;28;20171;-44
2021/01/06 08:41:47;;;;;;;4.93;3.83;;;1.40;99.90;;;;;;5022929;28;20905;-45
2021/01/06 08:44:35;;;;;;;6.30;3.97;;;1.30;99.90;;;;;;5025714;28;20229;-45
2021/01/06 08:47:04;;;;;;;7.10;4.40;;;1.30;99.90;;;;;;5013220;28;20195;-46
2021/01/06 08:49:34;;;;;;;6.97;4.20;;;1.30;99.90;;;;;;5021728;28;20179;-55
2021/01/06 08:52:20;;;;;;;5.60;3.73;;;1.30;99.90;;;;;;5021386;28;20247;-46
2021/01/06 08:55:06;;;;;;;5.20;4.07;;;1.30;99.90;;;;;;5023213;28;20172;-46
2021/01/06 08:57:36;;;;;;;5.27;3.60;;;1.30;99.90;;;;;;5021689;28;20206;-55
2021/01/06 09:00:35;;;;;;;4.40;3.30;;;1.30;99.90;;;;;;5021031;28;20188;-47
2021/01/06 09:03:06;;;;;;;5.23;4.03;;;1.30;99.90;;;;;;4999766;28;20285;-43
2021/01/06 09:05:50;;;;;;;6.17;3.97;;;1.30;99.90;;;;;;5021053;28;20715;-52
2021/01/06 09:08:29;;;;;;;4.87;3.80;;;1.30;99.90;;;;;;5020452;28;20199;-52
2021/01/06 09:11:04;;;;;;;5.17;4.43;;;1.30;99.90;;;;;;5024481;28;20196;-42
2021/01/06 09:13:40;;;;;;;5.70;4.20;;;1.40;99.90;;;;;;5017225;28;20701;-53
2021/01/06 09:16:23;;;;;;;5.87;4.13;;;1.40;99.90;;;;;;5020910;28;20210;-43
2021/01/06 09:19:13;;;;;;;5.73;4.13;;;1.40;99.90;;;;;;5006603;28;20800;-47
2021/01/06 09:21:40;;;;;;;5.23;4.07;;;1.40;99.90;;;;;;5012115;28;20311;-46
2021/01/06 09:24:36;;;;;;;4.30;3.90;;;1.40;99.90;;;;;;5016690;28;20199;-44
2021/01/06 09:27:25;;;;;;;5.90;4.07;;;1.40;99.90;;;;;;5023367;28;20560;-44
2021/01/06 09:29:53;;;;;;;3.53;3.23;;;1.40;99.90;;;;;;5021312;28;20239;-46
2021/01/06 09:32:24;;;;;;;6.40;3.60;;;1.40;99.90;;;;;;5007958;28;20847;-51
2021/01/06 09:34:58;;;;;;;4.93;3.77;;;1.40;99.90;;;;;;5020938;28;20188;-47
2021/01/06 09:37:32;;;;;;;4.33;3.80;;;1.40;99.90;;;;;;5019339;28;20183;-51
2021/01/06 09:40:24;;;;;;;5.43;3.87;;;1.40;99.90;;;;;;5041675;28;20199;-45
2021/01/06 09:43:07;;;;;;;7.53;4.43;;;1.40;99.90;;;;;;5031081;28;20838;-49
2021/01/06 09:45:34;;;;;;;5.63;3.97;;;1.50;99.90;;;;;;5018769;28;20267;-50
2021/01/06 09:48:06;;;;;;;6.90;4.23;;;1.40;99.90;;;;;;5013749;28;20188;-45
2021/01/06 09:50:38;;;;;;;6.10;3.90;;;1.50;99.90;;;;;;5018770;28;20181;-51
2021/01/06 09:53:08;;;;;;;4.23;3.37;;;1.50;99.90;;;;;;5016286;28;20580;-47
2021/01/06 09:55:35;;;;;;;5.43;4.53;;;1.40;99.90;;;;;;5015936;28;20191;-46
2021/01/06 09:58:17;;;;;;;4.90;4.13;;;1.40;99.90;;;;;;5013906;28;20188;-45
2021/01/06 10:01:22;;;;;;;7.30;4.73;;;1.50;99.90;;;;;;5015566;28;20202;-43
2021/01/06 10:03:53;;;;;;;6.43;4.33;;;1.50;99.90;;;;;;5015808;28;20194;-47
2021/01/06 10:06:46;;;;;;;5.67;4.10;;;1.50;99.90;;;;;;5020663;28;20175;-45
2021/01/06 10:09:26;;;;;;;5.60;4.17;;;1.50;99.90;;;;;;5014660;28;20203;-44
2021/01/06 10:12:10;;;;;;;6.00;4.43;;;1.50;99.90;;;;;;5023674;28;20710;-50
2021/01/06 10:15:07;;;;;;;7.77;4.20;;;1.50;99.90;;;;;;5023720;28;20244;-49
2021/01/06 10:17:42;;;;;;;5.23;4.30;;;1.60;99.90;;;;;;5025751;28;20221;-44
2021/01/06 10:20:25;;;;;;;6.53;4.60;;;1.60;99.90;;;;;;5017467;28;20195;-52
2021/01/06 10:22:55;;;;;;;5.13;4.07;;;1.60;99.90;;;;;;5023885;28;20183;-51
2021/01/06 10:25:36;;;;;;;4.27;3.87;;;1.60;99.90;;;;;;5027208;28;20398;-46
2021/01/06 10:28:23;;;;;;;7.80;4.43;;;1.60;99.90;;;;;;5036276;28;20183;-51
2021/01/06 10:31:03;;;;;;;4.97;3.73;;;1.60;99.90;;;;;;5023621;28;20306;-46
2021/01/06 10:33:29;;;;;;;4.90;3.53;;;1.60;99.90;;;;;;5016713;28;21288;-46
2021/01/06 10:35:58;;;;;;;4.77;3.63;;;1.60;99.90;;;;;;5010807;28;20192;-50
2021/01/06 10:38:34;;;;;;;6.13;4.03;;;1.60;99.90;;;;;;5021530;28;20192;-43
2021/01/06 10:41:31;;;;;;;4.23;3.87;;;1.60;99.90;;;;;;5017183;28;20730;-50
2021/01/06 10:44:01;;;;;;;5.17;3.60;;;1.60;99.90;;;;;;5022303;28;20177;-51
2021/01/06 10:46:36;;;;;;;4.60;3.60;;;1.60;99.90;;;;;;5021868;28;20280;-48
2021/01/06 10:49:05;;;;;;;6.13;3.33;;;1.70;99.90;;;;;;5013689;28;20179;-49
2021/01/06 10:51:58;;;;;;;3.97;3.17;;;1.70;99.90;;;;;;5010201;28;20222;-45
2021/01/06 10:54:52;;;;;;;4.67;3.23;;;1.70;99.90;;;;;;5016970;28;20506;-42
2021/01/06 10:57:37;;;;;;;3.30;2.80;;;1.70;99.90;;;;;;5015369;28;20182;-47
2021/01/06 11:00:09;;;;;;;4.10;3.13;;;1.70;99.90;;;;;;5020749;28;20175;-48
2021/01/06 11:02:55;;;;;;;5.57;3.53;;;1.70;99.90;;;;;;5019604;28;20217;-43
2021/01/06 11:05:30;;;;;;;6.37;3.73;;;1.70;99.90;;;;;;5011797;28;20195;-43
2021/01/06 11:08:30;;;;;;;3.77;3.43;;;1.70;99.90;;;;;;5010622;28;20862;-49
2021/01/06 11:11:14;;;;;;;4.00;2.77;;;1.70;99.90;;;;;;5002177;28;20199;-50
2021/01/06 11:13:54;;;;;;;4.70;3.40;;;1.70;99.90;;;;;;5003870;28;20202;-47
2021/01/06 11:16:25;;;;;;;3.20;2.60;;;1.70;99.90;;;;;;5000837;28;20177;-45
2021/01/06 11:18:53;;;;;;;5.63;2.97;;;1.70;99.90;;;;;;5006520;28;20257;-50
2021/01/06 11:21:24;;;;;;;3.97;2.83;;;1.70;99.90;;;;;;5015957;28;20209;-44
2021/01/06 11:23:56;;;;;;;2.93;2.60;;;1.70;99.90;;;;;;5011320;28;20198;-43
2021/01/06 11:26:23;;;;;;;3.77;2.50;;;1.70;99.90;;;;;;5016055;28;20194;-43
2021/01/06 11:28:55;;;;;;;4.87;2.40;;;1.70;99.90;;;;;;5023170;28;20190;-43
2021/01/06 11:31:34;;;;;;;3.50;2.77;;;1.70;99.90;;;;;;5020193;28;20203;-45
2021/01/06 11:34:09;;;;;;;3.07;2.73;;;1.70;99.90;;;;;;5017266;28;20202;-49
2021/01/06 11:36:51;;;;;;;2.70;2.50;;;1.70;99.90;;;;;;5018889;28;20203;-46
2021/01/06 11:39:35;;;;;;;3.33;2.77;;;1.70;99.90;;;;;;5006829;28;20187;-45
2021/01/06 11:42:04;;;;;;;2.50;2.30;;;1.70;99.90;;;;;;5019031;28;20709;-49
2021/01/06 11:44:35;;;;;;;4.70;2.77;;;1.70;99.90;;;;;;5015952;28;20440;-45
2021/01/06 11:47:11;;;;;;;3.40;2.20;;;1.70;99.90;;;;;;5018486;28;20731;-48
2021/01/06 11:49:43;;;;;;;4.60;2.80;;;1.70;99.90;;;;;;5017855;28;20594;-49
2021/01/06 11:52:33;;;;;;;2.50;2.30;;;1.70;99.90;;;;;;5005427;28;20294;-49
2021/01/06 11:55:13;;;;;;;2.50;2.30;;;1.60;99.90;;;;;;5005576;28;20238;-48
2021/01/06 11:58:00;;;;;;;3.00;2.50;;;1.60;99.90;;;;;;5021635;28;20187;-46
2021/01/06 12:00:28;;;;;;;3.70;2.57;;;1.60;99.90;;;;;;5020675;28;20164;-49
2021/01/06 12:03:18;;;;;;;4.43;2.40;;;1.60;99.90;;;;;;5022366;28;20630;-50
2021/01/06 12:05:57;;;;;;;2.30;2.10;;;1.60;99.90;;;;;;5013949;28;20229;-44
2021/01/06 12:08:50;;;;;;;2.50;2.30;;;1.60;99.90;;;;;;5023154;28;20184;-44
2021/01/06 12:11:32;;;;;;;2.27;2.07;;;1.50;99.90;;;;;;5010680;28;20207;-44
2021/01/06 12:14:25;;;;;;;2.20;1.90;;;1.50;99.90;;;;;;5035635;28;20182;-52
2021/01/06 12:17:01;;;;;;;3.03;2.37;;;1.50;99.90;;;;;;5027794;28;20179;-51
2021/01/06 12:19:33;;;;;;;2.40;2.20;;;1.50;99.90;;;;;;5024281;28;20170;-44
2021/01/06 12:22:01;;;;;;;2.33;2.07;;;1.50;99.90;;;;;;5015060;28;20207;-50
2021/01/06 12:24:30;;;;;;;2.57;2.27;;;1.50;99.90;;;;;;5024690;28;20199;-42
2021/01/06 12:27:22;;;;;;;2.37;2.07;;;1.40;99.90;;;;;;5012735;28;20198;-51
2021/01/06 12:29:56;;;;;;;4.07;2.50;;;1.40;99.90;;;;;;5023061;28;20215;-43
2021/01/06 12:32:24;;;;;;;3.50;2.80;;;1.40;99.90;;;;;;5017200;28;20336;-44
2021/01/06 12:34:53;;;;;;;3.93;2.30;;;1.40;99.90;;;;;;5016272;28;20188;-47
2021/01/06 12:37:27;;;;;;;3.57;1.93;;;1.40;99.90;;;;;;5008001;28;20284;-43
2021/01/06 12:39:58;;;;;;;3.87;1.90;;;1.40;99.90;;;;;;5023897;28;20184;-52
2021/01/06 12:42:40;;;;;;;3.20;2.20;;;1.40;99.90;;;;;;5010671;28;20265;-46
2021/01/06 12:45:11;;;;;;;2.27;2.07;;;1.40;99.90;;;;;;5022004;28;20205;-48
2021/01/06 12:47:55;;;;;;;2.90;2.00;;;1.40;99.90;;;;;;5027799;28;20197;-43
2021/01/06 12:50:41;;;;;;;4.57;2.23;;;1.40;99.90;;;;;;5024672;28;20190;-46
2021/01/06 12:53:16;;;;;;;2.00;1.90;;;1.40;99.90;;;;;;5011127;28;20561;-53
2021/01/06 12:55:52;;;;;;;1.97;1.80;;;1.40;99.90;;;;;;5023984;28;20191;-45
2021/01/06 12:58:25;;;;;;;1.97;1.80;;;1.40;99.90;;;;;;5007695;28;20202;-44
2021/01/06 13:01:02;;;;;;;2.03;1.93;;;1.40;99.90;;;;;;5027714;28;20211;-47
2021/01/06 13:03:45;;;;;;;2.20;1.20;;;1.40;99.90;;;;;;5034656;28;20924;-43
2021/01/06 13:06:14;;;;;;;1.57;1.47;;;1.30;99.90;;;;;;5020700;28;20180;-48
2021/01/06 13:09:15;;;;;;;2.40;2.20;;;1.30;99.90;;;;;;5022141;28;20229;-43
2021/01/06 13:11:44;;;;;;;2.20;1.93;;;1.30;99.90;;;;;;5013240;28;20237;-45
2021/01/06 13:14:27;;;;;;;2.30;2.07;;;1.30;99.90;;;;;;5017354;28;20214;-50
2021/01/06 13:16:56;;;;;;;1.80;1.70;;;1.40;99.90;;;;;;5004513;28;20256;-49
2021/01/06 13:19:38;;;;;;;2.63;2.27;;;1.40;99.90;;;;;;5002330;28;20668;-44
2021/01/06 13:22:25;;;;;;;2.30;1.90;;;1.40;99.90;;;;;;5002285;28;20288;-48
2021/01/06 13:25:04;;;;;;;2.43;2.20;;;1.40;99.90;;;;;;5000862;28;20196;-49
2021/01/06 13:27:36;;;;;;;2.20;2.00;;;1.40;99.90;;;;;;5008873;28;24010;-43
2021/01/06 13:30:34;;;;;;;2.20;2.00;;;1.40;99.90;;;;;;5018282;28;20557;-51
2021/01/06 13:33:12;;;;;;;2.10;1.90;;;1.40;99.90;;;;;;5010759;28;20238;-51
2021/01/06 13:36:04;;;;;;;2.30;2.10;;;1.40;99.90;;;;;;5022243;28;20223;-46
2021/01/06 13:38:42;;;;;;;2.30;2.10;;;1.30;99.90;;;;;;5023355;28;20183;-47
2021/01/06 13:41:32;;;;;;;2.70;2.10;;;1.40;99.90;;;;;;5014615;28;20267;-53
2021/01/06 13:44:16;;;;;;;2.27;2.07;;;1.40;99.90;;;;;;5009066;28;20282;-53